createdAt,value
2019-02-04T00:04:06.861Z,-1
2019-02-04T00:09:06.738Z,-1.02
2019-02-04T00:14:07.188Z,-1.02
2019-02-04T00:18:06.185Z,-1.06
2019-02-04T00:23:06.709Z,-1.04
2019-02-04T00:28:06.435Z,-1.17
2019-02-04T00:33:06.658Z,-1.13
2019-02-04T00:38:06.125Z,-1.13
2019-02-04T00:43:06.829Z,-1.17
2019-02-04T00:48:06.477Z,-1.26
2019-02-04T00:52:06.681Z,-1.27
2019-02-04T00:57:07.180Z,-1.18
2019-02-04T01:02:06.243Z,-1.18
2019-02-04T01:07:06.031Z,-1.16
2019-02-04T01:12:06.978Z,-1.26
2019-02-04T01:17:06.243Z,-1.3
2019-02-04T01:22:06.709Z,-1.33
2019-02-04T01:26:07.929Z,-1.35
2019-02-04T01:31:06.795Z,-1.46
2019-02-04T01:36:07.314Z,-1.55
2019-02-04T01:41:07.151Z,-1.63
2019-02-04T01:46:07.572Z,-1.74
2019-02-04T01:51:07.011Z,-1.72
2019-02-04T01:56:07.520Z,-1.84
2019-02-04T02:00:08.258Z,-1.98
2019-02-04T02:05:10.365Z,-2.06
2019-02-04T02:10:07.596Z,-2.15
2019-02-04T02:15:08.278Z,-2.17
2019-02-04T02:20:07.270Z,-2.22
2019-02-04T02:25:06.691Z,-2.29
2019-02-04T02:34:07.691Z,-2.21
2019-02-04T02:39:07.487Z,-2.35
2019-02-04T02:44:07.008Z,-2.33
2019-02-04T02:49:07.384Z,-2.31
2019-02-04T02:54:06.863Z,-2.23
2019-02-04T02:59:07.423Z,-2.31
2019-02-04T03:04:06.657Z,-2.33
2019-02-04T03:08:06.996Z,-2.23
2019-02-04T03:13:06.916Z,-2.26
2019-02-04T03:18:07.437Z,-2.3
2019-02-04T03:23:06.930Z,-2.2
2019-02-04T03:28:07.386Z,-2.21
2019-02-04T03:33:06.384Z,-2.26
2019-02-04T03:37:06.817Z,-2.29
2019-02-04T03:38:07.645Z,-2.29
2019-02-04T03:42:05.959Z,-2.37
2019-02-04T03:47:06.721Z,-2.36
2019-02-04T03:52:06.195Z,-2.27
2019-02-04T03:57:06.571Z,-2.22
2019-02-04T04:02:06.677Z,-1.84
2019-02-04T04:07:06.681Z,-1.53
2019-02-04T04:12:07.586Z,-1.5
2019-02-04T04:16:06.488Z,-1.45
2019-02-04T04:21:06.908Z,-1.27
2019-02-04T04:26:06.358Z,-1.24
2019-02-04T04:31:07.416Z,-1.12
2019-02-04T04:36:06.890Z,-1.12
2019-02-04T04:41:05.987Z,-1
2019-02-04T04:45:09.172Z,-0.98
2019-02-04T04:46:06.716Z,-0.98
2019-02-04T04:50:06.970Z,-1.05
2019-02-04T04:55:07.119Z,-1.1
2019-02-04T05:00:09.235Z,-1.24
2019-02-04T05:05:06.906Z,-1.48
2019-02-04T05:10:07.605Z,-1.7
2019-02-04T05:15:07.840Z,-1.83
2019-02-04T05:20:07.456Z,-2
2019-02-04T05:24:06.673Z,-2.04
2019-02-04T05:29:05.966Z,-2.16
2019-02-04T05:34:06.253Z,-2.21
2019-02-04T05:39:07.113Z,-2.09
2019-02-04T05:44:06.423Z,-1.87
2019-02-04T05:49:06.642Z,-1.63
2019-02-04T05:54:05.962Z,-1.65
2019-02-04T05:58:06.687Z,-1.73
2019-02-04T06:03:06.115Z,-1.95
2019-02-04T06:08:06.592Z,-2.06
2019-02-04T06:13:06.361Z,-2.18
2019-02-04T06:18:06.486Z,-2.28
2019-02-04T06:23:06.146Z,-2.3
2019-02-04T06:28:06.705Z,-2.35
2019-02-04T06:32:06.516Z,-2.26
2019-02-04T06:37:05.932Z,-2.06
2019-02-04T06:42:08.695Z,-2.01
2019-02-04T06:47:07.628Z,-1.93
2019-02-04T06:52:08.201Z,-1.79
2019-02-04T06:57:07.094Z,-1.62
2019-02-04T07:02:06.950Z,-1.65
2019-02-04T07:06:06.787Z,-1.87
2019-02-04T07:11:06.668Z,-1.94
2019-02-04T07:16:05.934Z,-1.98
2019-02-04T07:21:06.382Z,-2
2019-02-04T07:26:06.872Z,-1.86
2019-02-04T07:31:06.069Z,-1.85
2019-02-04T07:36:06.440Z,-1.82
2019-02-04T07:40:06.727Z,-1.5
2019-02-04T07:45:08.591Z,-1.17
2019-02-04T07:50:07.279Z,-0.89
2019-02-04T07:55:06.681Z,-0.79
2019-02-04T08:00:08.429Z,-0.72
2019-02-04T08:05:06.896Z,-0.72
2019-02-04T08:10:06.784Z,0.52
2019-02-04T08:14:07.071Z,1.6
2019-02-04T08:19:07.361Z,2.2
2019-02-04T08:24:06.087Z,2.62
2019-02-04T08:29:06.454Z,2.72
2019-02-04T08:34:06.898Z,2.5
2019-02-04T08:39:06.694Z,2.37
2019-02-04T08:44:06.212Z,3.05
2019-02-04T15:26:06.855Z,4.28
2019-02-04T15:31:07.336Z,5.13
2019-02-04T15:37:07.268Z,6.35
2019-02-04T15:43:06.598Z,7.48
2019-02-04T15:49:07.198Z,7.83
2019-02-04T15:55:06.346Z,8.11
2019-02-04T16:01:07.101Z,8.14
2019-02-04T16:07:06.152Z,8.16
2019-02-04T16:13:06.888Z,8.15
2019-02-04T16:18:06.899Z,8.07
2019-02-04T16:25:07.222Z,8.06
2019-02-04T16:30:07.770Z,8.04
2019-02-04T16:36:07.166Z,7.93
2019-02-04T16:42:06.807Z,7.92
2019-02-04T16:49:06.223Z,7.88
2019-02-04T16:55:06.820Z,7.85
2019-02-04T17:01:06.198Z,7.74
2019-02-04T17:06:06.842Z,7.63
2019-02-04T17:12:06.554Z,7.46
2019-02-04T17:19:06.634Z,7.55
2019-02-04T17:25:06.569Z,7.54
2019-02-04T17:32:06.019Z,7.54
2019-02-04T17:38:07.345Z,7.56
2019-02-04T17:46:07.581Z,7.5
2019-02-04T17:52:06.092Z,7.7
2019-02-04T18:00:08.790Z,7.62
2019-02-04T18:06:07.243Z,7.74
2019-02-04T18:13:06.066Z,7.58
2019-02-04T18:21:06.552Z,7.63
2019-02-04T18:28:06.735Z,7.59
2019-02-04T18:34:07.044Z,7.85
2019-02-04T18:35:06.755Z,7.85
2019-02-04T18:41:06.730Z,7.37
2019-02-04T18:49:06.642Z,7.35
2019-02-04T18:54:05.939Z,7.46
2019-02-04T19:10:06.026Z,7.26
2019-02-04T19:17:07.990Z,7.68
2019-02-04T19:23:06.703Z,7.42
2019-02-04T19:29:07.307Z,7.35
2019-02-04T19:35:07.199Z,7.33
2019-02-04T19:40:07.002Z,7.15
2019-02-04T19:48:07.615Z,6.97
2019-02-04T20:01:07.333Z,6.96
2019-02-04T20:14:06.180Z,6.95
2019-02-04T20:22:06.311Z,6.99
2019-02-04T20:29:06.760Z,6.96
2019-02-04T20:36:07.128Z,7.02
2019-02-04T20:43:06.941Z,7.04
2019-02-04T20:51:06.521Z,6.94
2019-02-04T20:58:06.635Z,7.07
2019-02-04T21:12:06.538Z,6.96
2019-02-04T21:19:06.726Z,7.07
2019-02-04T21:24:06.160Z,6.94
2019-02-04T21:32:06.792Z,6.7
2019-02-04T21:40:07.613Z,7.82
2019-02-04T21:48:06.610Z,7.11
2019-02-04T21:53:05.868Z,3.95
2019-02-04T21:57:07.125Z,1.63
2019-02-04T22:02:06.231Z,1.02
2019-02-04T22:07:06.303Z,0.58
2019-02-04T22:12:06.313Z,0.38
2019-02-04T22:17:06.148Z,0.24
2019-02-04T22:22:06.855Z,0.21
2019-02-04T22:26:07.267Z,0.16
2019-02-04T22:31:07.464Z,0.06
2019-02-04T22:36:06.830Z,0
2019-02-04T22:41:06.971Z,-0.12
2019-02-04T22:46:07.509Z,-0.16
2019-02-04T22:51:06.879Z,-0.2
2019-02-04T22:55:06.841Z,-0.22
2019-02-04T23:00:08.931Z,-0.21
2019-02-04T23:05:07.685Z,-0.23
2019-02-04T23:10:06.989Z,-0.35
2019-02-04T23:15:08.151Z,-0.43
2019-02-04T23:20:06.592Z,-0.47
2019-02-04T23:25:05.973Z,-0.49
2019-02-04T23:29:06.529Z,-0.58
2019-02-04T23:34:06.513Z,-0.84
2019-02-04T23:39:07.342Z,-0.83
2019-02-04T23:44:06.828Z,-0.82
2019-02-04T23:49:06.910Z,-0.82
2019-02-04T23:54:06.344Z,-1.09
2019-02-04T23:58:08.223Z,-1.05
